Time;durP1;ratioP1;P1;durP2;ratioP2;P2;SDS_P1;SDS_P2;PMS_P1;PMS_P2;Temp;Humidity;BMP_temperature;BMP_pressure;BME280_temperature;BME280_humidity;BME280_pressure;Samples;Min_cycle;Max_cycle;Signal;HPM_P1;HPM_P2
2021/10/26 00:00:50;;;;;;;14.03;9.47;;;11.90;98.60;;;;;;5014329;28;20203;-77
2021/10/26 00:03:16;;;;;;;15.83;9.50;;;11.90;99.80;;;;;;5012724;28;20183;-74
2021/10/26 00:05:42;;;;;;;12.70;7.97;;;11.90;98.90;;;;;;5005171;28;20217;-75
2021/10/26 00:08:07;;;;;;;13.27;8.70;;;11.90;98.80;;;;;;5010252;28;20258;-75
2021/10/26 00:10:34;;;;;;;19.33;9.23;;;11.90;97.60;;;;;;5011713;28;20219;-75
2021/10/26 00:13:00;;;;;;;15.20;8.33;;;12.00;97.00;;;;;;5010607;28;20263;-75
2021/10/26 00:15:26;;;;;;;17.33;8.40;;;12.00;96.20;;;;;;5006363;28;20440;-76
2021/10/26 00:17:52;;;;;;;10.57;8.60;;;12.00;94.10;;;;;;5012846;28;20923;-75
2021/10/26 00:20:18;;;;;;;15.47;9.10;;;12.00;91.40;;;;;;5013120;28;20430;-75
2021/10/26 00:22:43;;;;;;;10.97;8.00;;;12.00;91.70;;;;;;5011926;28;20894;-74
2021/10/26 00:25:09;;;;;;;12.93;8.57;;;12.00;92.20;;;;;;5013032;28;20204;-74
2021/10/26 00:27:35;;;;;;;11.57;8.33;;;12.00;91.80;;;;;;5013789;28;20173;-74
2021/10/26 00:30:00;;;;;;;12.27;8.50;;;11.90;93.00;;;;;;5007149;28;20212;-74
2021/10/26 00:32:26;;;;;;;20.27;8.80;;;12.00;93.00;;;;;;4993845;28;20177;-75
2021/10/26 00:34:51;;;;;;;11.57;8.30;;;12.00;91.60;;;;;;4998570;28;20625;-74
2021/10/26 00:37:17;;;;;;;15.73;8.87;;;11.90;92.00;;;;;;5014101;28;20187;-75
2021/10/26 00:39:43;;;;;;;18.40;8.50;;;11.90;92.70;;;;;;5015436;28;20211;-74
2021/10/26 00:42:10;;;;;;;16.40;8.20;;;11.90;93.50;;;;;;5015799;28;20259;-75
2021/10/26 00:44:36;;;;;;;21.00;9.70;;;11.80;93.90;;;;;;5015324;28;20434;-75
2021/10/26 00:47:02;;;;;;;15.50;9.80;;;12.00;94.00;;;;;;5012431;28;20484;-74
2021/10/26 00:49:28;;;;;;;12.50;8.17;;;12.00;91.10;;;;;;5007394;28;20923;-75
2021/10/26 00:51:55;;;;;;;13.83;9.17;;;11.90;92.90;;;;;;5012499;28;20485;-76
2021/10/26 00:54:24;;;;;;;15.33;8.53;;;11.90;94.20;;;;;;5009123;28;20684;-76
2021/10/26 00:56:50;;;;;;;14.07;9.20;;;11.80;94.60;;;;;;5010221;28;20789;-77
2021/10/26 00:59:16;;;;;;;13.00;8.77;;;11.80;95.80;;;;;;5008253;28;20411;-77
2021/10/26 01:01:41;;;;;;;19.20;8.70;;;11.80;97.20;;;;;;5010106;28;20777;-76
2021/10/26 01:04:07;;;;;;;12.03;8.40;;;11.80;98.40;;;;;;5014426;28;20672;-76
2021/10/26 01:06:35;;;;;;;21.10;10.07;;;11.80;96.40;;;;;;5015153;28;20190;-76
2021/10/26 01:09:04;;;;;;;10.90;8.30;;;11.80;95.80;;;;;;5015649;28;20184;-77
2021/10/26 01:11:30;;;;;;;17.40;8.73;;;11.90;95.80;;;;;;5018292;28;20550;-77
2021/10/26 01:13:57;;;;;;;12.87;8.77;;;12.00;91.10;;;;;;5020440;28;20450;-77
2021/10/26 01:16:23;;;;;;;13.50;9.07;;;11.90;92.00;;;;;;5009409;28;20497;-77
2021/10/26 01:18:49;;;;;;;15.33;8.43;;;12.00;94.00;;;;;;5015896;28;20407;-76
2021/10/26 01:21:16;;;;;;;13.67;8.97;;;12.00;91.10;;;;;;5014933;28;20275;-76
2021/10/26 01:23:41;;;;;;;13.03;8.87;;;12.00;92.20;;;;;;5012809;28;20439;-76
2021/10/26 01:26:07;;;;;;;16.00;8.60;;;12.00;92.10;;;;;;5012258;28;20462;-76
2021/10/26 01:28:34;;;;;;;12.77;7.63;;;12.00;92.00;;;;;;5008516;28;20275;-77
2021/10/26 01:31:00;;;;;;;15.30;8.20;;;12.00;92.00;;;;;;5012202;28;20552;-76
2021/10/26 01:33:26;;;;;;;17.33;8.43;;;12.00;92.40;;;;;;5013338;28;20915;-77
2021/10/26 01:35:52;;;;;;;13.53;8.60;;;12.00;92.10;;;;;;5006100;28;20798;-77
2021/10/26 01:38:18;;;;;;;15.43;8.30;;;12.10;89.60;;;;;;5014829;28;20411;-76
2021/10/26 01:40:44;;;;;;;14.73;7.80;;;12.10;86.60;;;;;;5013333;28;20748;-76
2021/10/26 01:43:09;;;;;;;15.37;8.93;;;12.10;87.70;;;;;;5013640;28;20202;-75
2021/10/26 01:45:35;;;;;;;14.23;7.80;;;12.00;88.40;;;;;;5005597;28;20296;-77
2021/10/26 01:48:00;;;;;;;12.17;8.33;;;12.10;87.70;;;;;;5014539;28;20180;-77
2021/10/26 01:50:26;;;;;;;16.60;8.33;;;12.00;87.50;;;;;;5014894;28;20200;-77
2021/10/26 01:52:52;;;;;;;15.83;7.47;;;12.00;89.70;;;;;;5014626;28;20223;-76
2021/10/26 01:55:18;;;;;;;14.13;8.50;;;12.00;87.70;;;;;;5013867;28;20196;-76
2021/10/26 01:57:45;;;;;;;13.30;8.20;;;12.00;88.30;;;;;;5014417;28;20514;-77
2021/10/26 02:00:13;;;;;;;16.87;8.80;;;12.00;90.40;;;;;;5014090;28;20408;-78
2021/10/26 02:02:39;;;;;;;11.83;7.80;;;11.90;89.90;;;;;;5012730;28;20427;-77
2021/10/26 02:05:06;;;;;;;14.70;8.30;;;11.90;90.80;;;;;;5005803;28;20468;-76
2021/10/26 02:07:32;;;;;;;13.53;8.37;;;11.80;92.00;;;;;;5015036;28;20418;-77
2021/10/26 02:09:57;;;;;;;15.80;8.70;;;11.80;92.70;;;;;;5017106;28;20909;-77
2021/10/26 02:12:23;;;;;;;14.57;8.50;;;11.80;92.10;;;;;;5016247;28;20431;-77
2021/10/26 02:14:49;;;;;;;12.83;8.10;;;11.80;91.50;;;;;;5002595;28;20367;-77
2021/10/26 02:17:15;;;;;;;18.53;10.40;;;11.90;91.60;;;;;;5013904;28;20199;-76
2021/10/26 02:19:41;;;;;;;15.40;9.80;;;12.00;88.60;;;;;;5013993;28;20434;-76
2021/10/26 02:22:07;;;;;;;21.13;14.57;;;12.00;88.90;;;;;;5013974;28;20547;-77
2021/10/26 02:24:33;;;;;;;25.50;14.97;;;12.00;89.00;;;;;;5007589;28;20227;-76
2021/10/26 02:26:59;;;;;;;33.63;20.10;;;12.00;89.40;;;;;;5011271;28;20760;-77
2021/10/26 02:29:25;;;;;;;41.97;27.30;;;12.00;88.10;;;;;;5013866;28;20457;-77
2021/10/26 02:31:51;;;;;;;43.67;26.80;;;12.00;88.60;;;;;;5018088;28;20196;-77
2021/10/26 02:34:17;;;;;;;41.37;25.07;;;12.00;88.00;;;;;;5016803;28;20415;-77
2021/10/26 02:36:43;;;;;;;48.97;27.37;;;12.00;88.30;;;;;;5006737;28;20416;-75
2021/10/26 02:39:08;;;;;;;46.47;28.60;;;12.10;87.70;;;;;;5013431;28;20177;-77
2021/10/26 02:41:34;;;;;;;43.33;28.37;;;12.10;87.20;;;;;;5013260;28;20181;-76
2021/10/26 02:44:00;;;;;;;49.23;28.40;;;12.00;87.70;;;;;;5013149;28;20188;-76
2021/10/26 02:46:26;;;;;;;50.13;28.50;;;12.10;87.30;;;;;;5015306;28;20431;-76
2021/10/26 02:48:51;;;;;;;44.93;26.70;;;12.00;89.40;;;;;;5020245;28;20439;-76
2021/10/26 02:51:17;;;;;;;40.33;22.93;;;12.00;88.90;;;;;;5019217;28;20208;-77
2021/10/26 02:53:44;;;;;;;35.80;22.90;;;12.00;89.80;;;;;;5019290;28;20184;-76
2021/10/26 02:56:10;;;;;;;42.10;22.57;;;12.00;89.60;;;;;;5003394;28;20223;-76
2021/10/26 02:58:35;;;;;;;39.13;22.50;;;12.00;90.40;;;;;;5013087;28;20407;-76
2021/10/26 03:01:02;;;;;;;36.07;22.47;;;12.10;90.20;;;;;;5028155;28;20172;-76
2021/10/26 03:03:27;;;;;;;41.73;21.90;;;12.00;90.10;;;;;;5011018;28;20185;-76
2021/10/26 03:05:53;;;;;;;37.30;21.13;;;12.00;91.50;;;;;;5004015;28;20525;-77
2021/10/26 03:08:19;;;;;;;34.97;21.70;;;11.90;92.00;;;;;;5012949;28;20538;-76
2021/10/26 03:10:44;;;;;;;42.33;22.43;;;12.00;91.80;;;;;;5012782;28;20200;-76
2021/10/26 03:13:10;;;;;;;38.80;22.23;;;12.00;91.70;;;;;;5006142;28;20247;-76
2021/10/26 03:15:36;;;;;;;32.43;19.17;;;12.00;91.10;;;;;;4999553;28;20275;-75
2021/10/26 03:18:02;;;;;;;35.60;17.70;;;12.00;91.80;;;;;;5012670;28;20176;-76
2021/10/26 03:20:28;;;;;;;36.80;19.73;;;11.90;93.10;;;;;;5012730;28;20412;-77
2021/10/26 03:22:54;;;;;;;29.93;18.57;;;11.90;94.20;;;;;;5012240;28;20859;-76
2021/10/26 03:25:21;;;;;;;32.07;19.93;;;11.90;94.20;;;;;;5004209;28;20833;-75
2021/10/26 03:27:47;;;;;;;38.53;19.87;;;11.90;95.60;;;;;;5012467;28;20416;-77
2021/10/26 03:30:13;;;;;;;41.90;18.80;;;11.80;95.80;;;;;;5011661;28;20842;-76
2021/10/26 03:32:40;;;;;;;30.37;18.33;;;11.90;96.40;;;;;;5012179;28;20399;-76
2021/10/26 03:35:06;;;;;;;35.57;17.67;;;12.00;94.00;;;;;;5011878;28;20990;-77
2021/10/26 03:37:31;;;;;;;39.60;23.10;;;11.90;94.50;;;;;;5012147;28;20435;-76
2021/10/26 03:39:57;;;;;;;37.17;23.13;;;11.90;93.70;;;;;;5012203;28;20818;-75
2021/10/26 03:42:23;;;;;;;34.73;20.90;;;12.00;93.20;;;;;;5011530;28;20811;-75
2021/10/26 03:44:50;;;;;;;33.70;18.43;;;12.00;92.00;;;;;;5011890;28;20543;-77
2021/10/26 03:47:15;;;;;;;33.00;20.70;;;12.00;92.50;;;;;;5011875;28;20452;-76
2021/10/26 03:49:41;;;;;;;34.37;20.27;;;11.90;92.80;;;;;;5012217;28;20439;-75
2021/10/26 03:52:07;;;;;;;45.60;25.07;;;11.90;92.80;;;;;;5011870;28;20214;-75
2021/10/26 03:54:32;;;;;;;42.37;22.30;;;11.90;93.20;;;;;;5011916;28;20205;-74
2021/10/26 03:56:59;;;;;;;42.87;22.73;;;11.90;93.10;;;;;;5003879;28;20172;-76
2021/10/26 03:59:30;;;;;;;41.40;23.73;;;12.00;91.60;;;;;;5012339;28;20168;-76
2021/10/26 04:01:56;;;;;;;47.80;26.77;;;12.10;90.70;;;;;;5011737;28;20445;-76
2021/10/26 04:04:22;;;;;;;51.93;27.77;;;12.10;90.20;;;;;;5011724;28;20470;-76
2021/10/26 04:06:48;;;;;;;46.47;26.90;;;12.10;90.90;;;;;;5012284;28;20431;-75
2021/10/26 04:09:14;;;;;;;44.47;26.10;;;12.10;92.00;;;;;;4998220;28;20204;-74
2021/10/26 04:11:52;;;;;;;50.40;29.67;;;12.10;92.30;;;;;;4997873;28;20451;-75
2021/10/26 04:14:18;;;;;;;66.83;32.03;;;12.10;92.80;;;;;;5011594;28;20510;-76
2021/10/26 04:16:43;;;;;;;59.00;31.57;;;12.10;92.40;;;;;;5003635;28;20443;-76
2021/10/26 04:19:12;;;;;;;51.10;31.53;;;12.10;91.20;;;;;;5011774;28;20168;-76
2021/10/26 04:21:38;;;;;;;57.03;33.70;;;12.20;89.60;;;;;;5010701;28;20253;-76
2021/10/26 04:24:04;;;;;;;54.33;33.10;;;12.30;87.10;;;;;;5011768;28;20514;-76
2021/10/26 04:26:30;;;;;;;62.67;35.23;;;12.30;86.30;;;;;;5011422;28;20419;-76
2021/10/26 04:28:55;;;;;;;50.80;29.17;;;12.30;86.30;;;;;;5011672;28;20788;-76
2021/10/26 04:31:21;;;;;;;54.00;28.70;;;12.30;85.50;;;;;;5026460;28;20455;-76
2021/10/26 04:33:47;;;;;;;49.80;27.27;;;12.30;85.20;;;;;;5011159;28;20199;-75
2021/10/26 04:36:13;;;;;;;48.27;26.10;;;12.30;84.90;;;;;;5007092;28;20479;-75
2021/10/26 04:38:39;;;;;;;54.97;28.27;;;12.40;83.10;;;;;;5015902;28;20168;-75
2021/10/26 04:41:08;;;;;;;51.73;28.23;;;12.40;80.80;;;;;;5014615;28;20423;-75
2021/10/26 04:43:34;;;;;;;40.80;26.60;;;12.50;81.20;;;;;;4996789;28;20185;-77
2021/10/26 04:46:01;;;;;;;47.67;26.70;;;12.40;82.50;;;;;;5006034;28;20458;-76
2021/10/26 04:48:27;;;;;;;48.67;28.17;;;12.40;82.30;;;;;;5015229;28;20486;-76
2021/10/26 04:50:53;;;;;;;49.40;28.93;;;12.40;81.30;;;;;;5015443;28;20986;-75
2021/10/26 04:53:19;;;;;;;50.07;29.07;;;12.40;81.10;;;;;;5014687;28;20431;-75
2021/10/26 04:55:45;;;;;;;50.33;29.83;;;12.40;82.00;;;;;;5008346;28;20537;-77
2021/10/26 04:58:11;;;;;;;48.60;27.50;;;12.40;82.80;;;;;;5014287;28;20402;-76
2021/10/26 05:00:36;;;;;;;48.80;27.20;;;12.30;83.80;;;;;;5030128;28;20523;-76
2021/10/26 05:03:02;;;;;;;50.53;25.40;;;12.30;84.70;;;;;;5015133;28;20180;-76
2021/10/26 05:05:28;;;;;;;46.27;23.67;;;12.30;83.30;;;;;;5025238;28;20216;-76
2021/10/26 05:07:53;;;;;;;42.10;23.93;;;12.30;82.50;;;;;;5011552;28;20196;-75
2021/10/26 05:10:19;;;;;;;41.13;22.83;;;12.30;83.50;;;;;;5015006;28;20200;-75
2021/10/26 05:12:44;;;;;;;41.83;22.90;;;12.20;84.70;;;;;;5016491;28;20600;-76
2021/10/26 05:15:11;;;;;;;39.23;21.17;;;12.10;84.90;;;;;;5015604;28;20263;-76
2021/10/26 05:17:39;;;;;;;34.13;20.97;;;12.10;85.60;;;;;;5008651;28;20247;-76
2021/10/26 05:20:07;;;;;;;34.60;19.33;;;12.00;87.00;;;;;;5012928;28;20438;-76
2021/10/26 05:22:33;;;;;;;39.87;20.67;;;11.90;89.60;;;;;;5014539;28;20425;-76
2021/10/26 05:24:58;;;;;;;35.47;21.00;;;11.90;91.70;;;;;;5014902;28;20428;-77
2021/10/26 05:27:24;;;;;;;42.20;22.80;;;12.10;88.80;;;;;;5014683;28;20411;-75
2021/10/26 05:29:50;;;;;;;45.17;24.00;;;12.10;86.60;;;;;;5012326;28;20302;-77
2021/10/26 05:32:16;;;;;;;38.10;22.30;;;12.20;85.90;;;;;;5015167;28;20912;-76
2021/10/26 05:34:42;;;;;;;45.47;25.03;;;12.30;82.60;;;;;;5016740;28;20188;-76
2021/10/26 05:37:10;;;;;;;51.97;24.13;;;12.40;81.40;;;;;;5020154;28;20779;-75
2021/10/26 05:39:38;;;;;;;49.73;28.40;;;12.40;81.20;;;;;;5014035;28;20513;-76
2021/10/26 05:42:04;;;;;;;56.70;29.80;;;12.40;82.20;;;;;;5014343;28;20432;-75
2021/10/26 05:44:30;;;;;;;44.80;26.50;;;12.40;83.60;;;;;;5012649;28;20531;-76
2021/10/26 05:46:55;;;;;;;48.23;22.80;;;12.30;85.60;;;;;;5016149;28;20874;-75
2021/10/26 05:49:21;;;;;;;45.83;21.90;;;12.40;83.20;;;;;;5015002;28;20231;-75
2021/10/26 05:51:47;;;;;;;30.70;19.10;;;12.40;82.50;;;;;;5010778;28;20258;-75
2021/10/26 05:54:12;;;;;;;44.37;19.20;;;12.40;82.60;;;;;;5012318;28;20212;-75
2021/10/26 05:56:38;;;;;;;39.03;18.53;;;12.50;80.60;;;;;;5015103;28;20622;-75
2021/10/26 05:59:03;;;;;;;30.77;19.27;;;12.40;80.80;;;;;;5001539;28;20250;-76
2021/10/26 06:01:29;;;;;;;38.30;20.23;;;12.40;82.30;;;;;;5001590;28;20200;-76
2021/10/26 06:03:55;;;;;;;40.93;20.10;;;12.40;81.80;;;;;;5021034;28;20556;-74
2021/10/26 06:06:21;;;;;;;29.90;18.37;;;12.50;80.40;;;;;;5012194;28;20192;-75
2021/10/26 06:08:50;;;;;;;41.30;18.77;;;12.50;79.20;;;;;;5008407;28;20439;-75
2021/10/26 06:11:19;;;;;;;31.60;17.90;;;12.60;77.50;;;;;;5006600;28;20212;-74
2021/10/26 06:13:48;;;;;;;33.90;19.87;;;12.60;78.20;;;;;;5013375;28;20574;-75
2021/10/26 06:16:14;;;;;;;43.03;21.03;;;12.60;77.80;;;;;;5006842;28;20444;-74
2021/10/26 06:18:40;;;;;;;44.40;24.70;;;12.60;77.30;;;;;;5007593;28;20942;-75
2021/10/26 06:21:05;;;;;;;44.67;25.67;;;12.60;76.60;;;;;;5010532;28;20267;-75
2021/10/26 06:23:31;;;;;;;45.00;24.43;;;12.60;77.80;;;;;;5008930;28;20193;-75
2021/10/26 06:26:00;;;;;;;50.03;27.23;;;12.60;77.80;;;;;;5006006;28;20223;-75
2021/10/26 06:28:27;;;;;;;54.10;27.33;;;12.60;77.20;;;;;;5011866;28;20262;-76
2021/10/26 06:30:53;;;;;;;48.60;25.43;;;12.60;76.80;;;;;;5013088;28;20816;-76
2021/10/26 06:33:18;;;;;;;47.67;25.97;;;12.60;76.70;;;;;;5010015;28;20439;-76
2021/10/26 06:35:45;;;;;;;48.77;26.70;;;12.60;76.30;;;;;;5007562;28;20559;-76
2021/10/26 06:38:10;;;;;;;44.43;24.27;;;12.50;77.10;;;;;;5011093;28;20656;-76
2021/10/26 06:40:36;;;;;;;42.43;21.00;;;12.60;77.00;;;;;;5012895;28;20431;-75
2021/10/26 06:43:02;;;;;;;35.53;16.40;;;12.50;76.20;;;;;;5009474;28;20184;-75
2021/10/26 06:45:27;;;;;;;31.33;15.87;;;12.60;74.20;;;;;;5005750;28;20442;-76
2021/10/26 06:47:54;;;;;;;27.03;13.97;;;12.60;73.70;;;;;;5007137;28;20676;-74
2021/10/26 06:50:20;;;;;;;30.67;14.00;;;12.70;72.50;;;;;;4992735;28;20213;-74
2021/10/26 06:52:46;;;;;;;26.10;11.63;;;12.70;72.80;;;;;;5005698;28;20428;-76
2021/10/26 06:55:17;;;;;;;27.40;14.83;;;12.70;72.10;;;;;;5009669;28;20455;-76
2021/10/26 06:57:45;;;;;;;27.80;13.03;;;12.70;72.60;;;;;;4998996;28;20274;-75
2021/10/26 07:00:12;;;;;;;19.70;10.47;;;12.70;71.70;;;;;;5007768;28;20453;-76
2021/10/26 07:02:45;;;;;;;25.93;12.70;;;12.70;70.90;;;;;;4995901;28;20846;-74
2021/10/26 07:05:11;;;;;;;22.50;10.70;;;12.70;70.50;;;;;;5010432;28;20452;-74
2021/10/26 07:07:36;;;;;;;22.40;12.30;;;12.80;70.70;;;;;;5007480;28;20522;-76
2021/10/26 07:10:04;;;;;;;23.33;11.70;;;12.70;70.90;;;;;;5009638;28;20656;-75
2021/10/26 07:12:30;;;;;;;26.13;12.97;;;12.70;72.80;;;;;;5005476;28;20181;-75
2021/10/26 07:14:56;;;;;;;25.37;11.50;;;12.80;70.90;;;;;;5009565;28;20998;-75
2021/10/26 07:17:22;;;;;;;24.53;12.23;;;12.80;70.10;;;;;;5003019;28;20416;-74
2021/10/26 07:19:47;;;;;;;21.03;10.73;;;12.90;69.50;;;;;;5012587;28;20179;-77
2021/10/26 07:22:13;;;;;;;20.80;10.00;;;12.90;70.00;;;;;;5017874;28;20605;-75
2021/10/26 07:24:39;;;;;;;25.17;10.37;;;12.90;68.40;;;;;;5014861;28;20209;-76
2021/10/26 07:27:05;;;;;;;27.93;11.50;;;13.00;66.50;;;;;;5029962;28;20473;-76
2021/10/26 07:29:31;;;;;;;26.40;10.40;;;13.00;66.00;;;;;;5014438;28;20210;-78
2021/10/26 07:31:57;;;;;;;24.23;10.70;;;12.90;66.20;;;;;;5011863;28;20895;-78
2021/10/26 07:34:23;;;;;;;30.80;11.60;;;13.00;67.90;;;;;;5016813;28;20255;-76
2021/10/26 07:36:50;;;;;;;26.20;11.87;;;13.00;68.40;;;;;;5022354;28;20182;-76
2021/10/26 07:41:53;;;;;;;20.40;9.80;;;13.10;65.10;;;;;;5020619;28;20492;-76
2021/10/26 07:44:18;;;;;;;25.30;10.47;;;13.20;65.70;;;;;;5022353;28;20432;-77
2021/10/26 07:46:44;;;;;;;19.77;9.67;;;13.20;64.90;;;;;;5025352;28;20453;-77
2021/10/26 07:49:09;;;;;;;22.03;11.90;;;13.30;65.50;;;;;;5016572;28;20276;-76
2021/10/26 07:51:36;;;;;;;29.30;14.90;;;13.30;64.40;;;;;;5019273;28;20212;-76
2021/10/26 07:54:03;;;;;;;35.13;14.03;;;13.40;62.60;;;;;;5027322;28;20171;-77
2021/10/26 07:56:28;;;;;;;26.27;14.37;;;13.40;62.50;;;;;;5021414;28;20384;-77
2021/10/26 07:58:55;;;;;;;27.80;14.17;;;13.40;62.50;;;;;;5024023;28;20417;-77
2021/10/26 08:01:21;;;;;;;24.23;12.73;;;13.40;64.70;;;;;;5044529;28;20512;-77
2021/10/26 08:03:46;;;;;;;26.63;12.07;;;13.50;62.20;;;;;;5028096;28;20489;-76
2021/10/26 08:06:12;;;;;;;31.97;12.40;;;13.60;60.30;;;;;;5024181;28;20317;-78
2021/10/26 08:08:38;;;;;;;19.00;9.47;;;13.70;58.60;;;;;;5015668;28;20603;-75
2021/10/26 08:11:03;;;;;;;16.30;10.10;;;13.70;56.30;;;;;;5016959;28;20205;-77
2021/10/26 08:13:29;;;;;;;16.40;9.80;;;13.70;58.00;;;;;;5021490;28;20549;-77
2021/10/26 08:15:54;;;;;;;22.30;9.37;;;13.70;58.30;;;;;;5027810;28;20213;-76
2021/10/26 08:18:20;;;;;;;18.67;9.80;;;13.70;58.70;;;;;;5029062;28;20209;-77
2021/10/26 08:20:48;;;;;;;20.10;8.90;;;13.80;56.60;;;;;;5025519;28;20186;-76
2021/10/26 08:23:15;;;;;;;22.13;9.50;;;13.90;55.00;;;;;;5022724;28;20207;-76
2021/10/26 08:25:44;;;;;;;19.60;8.90;;;14.00;54.70;;;;;;5020485;28;20427;-77
2021/10/26 08:28:14;;;;;;;17.83;10.27;;;14.00;54.60;;;;;;5017487;28;20407;-77
2021/10/26 08:30:58;;;;;;;16.83;7.40;;;14.00;55.60;;;;;;5020005;28;20426;-78
2021/10/26 08:35:55;;;;;;;16.87;8.80;;;14.10;53.90;;;;;;5017009;28;20447;-78
2021/10/26 08:38:21;;;;;;;19.90;8.20;;;14.00;55.40;;;;;;5017668;28;20413;-77
2021/10/26 08:40:47;;;;;;;21.83;8.97;;;14.00;56.30;;;;;;5019390;28;20241;-76
2021/10/26 08:43:16;;;;;;;17.53;8.20;;;14.10;54.30;;;;;;5020898;28;20543;-77
2021/10/26 08:45:46;;;;;;;20.67;7.80;;;14.20;54.30;;;;;;5008639;28;20441;-77
2021/10/26 08:48:16;;;;;;;15.87;7.30;;;14.20;52.30;;;;;;5016207;28;20471;-77
2021/10/26 08:50:44;;;;;;;25.27;8.40;;;14.40;50.60;;;;;;5009375;28;20441;-77
2021/10/26 08:53:10;;;;;;;22.20;8.50;;;14.40;51.70;;;;;;5015690;28;20462;-78
2021/10/26 08:55:39;;;;;;;12.70;6.40;;;14.50;50.30;;;;;;5009425;28;20792;-78
2021/10/26 08:58:07;;;;;;;18.00;7.90;;;14.60;49.00;;;;;;5013746;28;20259;-77
2021/10/26 09:00:33;;;;;;;18.43;6.77;;;14.60;48.60;;;;;;5013284;28;20405;-77
2021/10/26 09:03:01;;;;;;;23.17;7.50;;;14.70;49.60;;;;;;5016937;28;21029;-77
2021/10/26 09:05:30;;;;;;;14.97;6.60;;;14.70;49.80;;;;;;5017111;28;20476;-77
2021/10/26 09:08:00;;;;;;;20.63;7.43;;;14.80;48.90;;;;;;5019217;28;20411;-76
2021/10/26 09:10:30;;;;;;;12.53;6.20;;;14.80;48.20;;;;;;5025314;28;20432;-78
2021/10/26 09:19:25;;;;;;;21.67;6.10;;;14.70;47.60;;;;;;5015299;28;20511;-76
2021/10/26 09:21:59;;;;;;;9.60;5.47;;;14.80;48.30;;;;;;5001735;28;20408;-77
2021/10/26 09:24:26;;;;;;;17.13;6.00;;;14.70;48.60;;;;;;5010157;28;20449;-76
2021/10/26 09:27:01;;;;;;;10.43;5.43;;;14.80;48.40;;;;;;5017362;28;20413;-74
2021/10/26 09:29:27;;;;;;;9.80;4.77;;;14.80;47.70;;;;;;5022028;28;20500;-77
2021/10/26 09:32:05;;;;;;;13.77;5.20;;;14.80;46.10;;;;;;5014514;28;20462;-75
2021/10/26 09:34:39;;;;;;;16.03;6.17;;;14.80;46.40;;;;;;5023970;28;20653;-77
2021/10/26 09:37:05;;;;;;;16.80;5.03;;;15.00;46.00;;;;;;5019716;28;20458;-77
2021/10/26 09:39:32;;;;;;;16.57;4.30;;;15.10;45.20;;;;;;5022953;28;20422;-76
2021/10/26 09:42:03;;;;;;;20.43;5.00;;;15.10;44.90;;;;;;5028813;28;20478;-77
2021/10/26 09:44:34;;;;;;;9.77;4.53;;;15.30;43.00;;;;;;5022244;28;20449;-77
2021/10/26 09:47:07;;;;;;;12.43;4.70;;;15.50;43.10;;;;;;5024008;28;20439;-77
2021/10/26 09:49:39;;;;;;;16.73;5.50;;;15.60;41.30;;;;;;5015879;28;20419;-76
2021/10/26 09:52:37;;;;;;;13.10;5.20;;;15.50;41.30;;;;;;5001072;28;21008;-77
2021/10/26 09:55:28;;;;;;;9.33;5.17;;;15.70;41.30;;;;;;5014956;28;20519;-78
2021/10/26 09:57:58;;;;;;;17.97;5.03;;;15.60;41.60;;;;;;5015508;28;20428;-79
2021/10/26 10:00:26;;;;;;;15.00;4.97;;;15.50;41.50;;;;;;5031665;28;20465;-77
2021/10/26 10:03:11;;;;;;;23.20;5.80;;;15.60;41.60;;;;;;5014245;28;20430;-78
2021/10/26 10:05:41;;;;;;;10.13;4.40;;;15.60;42.10;;;;;;5022075;28;20916;-75
2021/10/26 10:08:22;;;;;;;19.00;4.67;;;15.70;40.60;;;;;;5015556;28;20453;-77
2021/10/26 10:10:50;;;;;;;20.23;5.27;;;15.90;40.10;;;;;;5016123;28;20512;-77
2021/10/26 10:13:16;;;;;;;21.27;6.00;;;16.00;40.00;;;;;;5011051;28;20428;-76
2021/10/26 10:15:49;;;;;;;17.33;4.60;;;16.00;40.10;;;;;;5011729;28;20439;-77
2021/10/26 10:18:22;;;;;;;11.50;4.60;;;16.00;39.50;;;;;;5014955;28;20172;-79
2021/10/26 10:20:52;;;;;;;11.67;4.30;;;16.00;38.20;;;;;;5025748;28;20427;-78
2021/10/26 10:23:21;;;;;;;18.43;4.43;;;15.90;38.80;;;;;;5020641;28;20925;-78
2021/10/26 10:25:47;;;;;;;38.30;17.63;;;15.90;38.60;;;;;;5015563;28;20583;-78
2021/10/26 10:28:17;;;;;;;20.10;8.40;;;16.10;38.60;;;;;;5022035;28;20402;-80
2021/10/26 10:30:43;;;;;;;16.93;6.23;;;16.40;38.30;;;;;;5026598;28;20490;-79
2021/10/26 10:33:10;;;;;;;10.57;4.30;;;16.60;36.10;;;;;;5020321;28;20428;-79
2021/10/26 10:35:37;;;;;;;7.50;3.90;;;16.70;35.60;;;;;;5017625;28;20421;-78
2021/10/26 10:38:06;;;;;;;9.70;4.57;;;16.70;35.60;;;;;;5014959;28;20423;-77
2021/10/26 10:40:32;;;;;;;12.03;3.80;;;16.80;34.80;;;;;;5026730;28;20415;-80
2021/10/26 10:42:59;;;;;;;12.50;4.33;;;16.80;34.40;;;;;;5024472;28;20447;-78
2021/10/26 10:45:28;;;;;;;35.53;19.63;;;17.00;34.30;;;;;;5021459;28;20481;-77
2021/10/26 10:47:55;;;;;;;31.87;11.57;;;17.10;34.90;;;;;;5019652;28;20486;-77
2021/10/26 10:50:27;;;;;;;58.60;33.67;;;17.00;34.30;;;;;;5019190;28;20561;-78
2021/10/26 10:53:07;;;;;;;12.33;4.10;;;16.90;35.00;;;;;;5020822;28;20431;-75
2021/10/26 10:55:33;;;;;;;51.70;28.17;;;16.70;34.70;;;;;;5012246;28;20442;-77
2021/10/26 10:58:21;;;;;;;13.93;3.30;;;16.60;36.70;;;;;;5001109;28;20425;-77
2021/10/26 11:00:46;;;;;;;12.20;4.50;;;16.50;35.30;;;;;;5014539;28;20523;-77
2021/10/26 11:03:29;;;;;;;14.83;7.37;;;16.40;35.30;;;;;;5009113;28;21255;-77
2021/10/26 11:05:55;;;;;;;6.00;3.10;;;16.50;34.80;;;;;;5016133;28;20213;-76
2021/10/26 11:08:56;;;;;;;16.10;3.50;;;16.50;34.10;;;;;;5012864;28;20513;-77
2021/10/26 11:11:22;;;;;;;11.60;4.37;;;16.50;34.50;;;;;;4974082;28;20208;-76
2021/10/26 11:13:47;;;;;;;43.93;9.87;;;16.50;34.40;;;;;;5004911;28;20462;-76
2021/10/26 11:16:13;;;;;;;10.63;3.20;;;16.50;34.30;;;;;;5009576;28;20496;-76
2021/10/26 11:18:39;;;;;;;9.60;4.23;;;16.70;33.60;;;;;;5007378;28;20204;-75
2021/10/26 11:21:10;;;;;;;9.57;2.97;;;16.80;32.70;;;;;;5018525;28;20203;-77
2021/10/26 11:23:40;;;;;;;6.70;3.20;;;16.70;32.60;;;;;;5012639;28;20184;-75
2021/10/26 11:26:09;;;;;;;14.10;4.37;;;16.60;32.80;;;;;;5011447;28;20447;-77
2021/10/26 11:28:36;;;;;;;10.03;4.00;;;16.50;33.60;;;;;;5009612;28;20477;-74
2021/10/26 11:31:05;;;;;;;26.23;5.53;;;16.50;34.10;;;;;;5012304;28;20532;-74
2021/10/26 11:33:33;;;;;;;10.33;3.10;;;16.60;33.30;;;;;;4997548;28;20853;-77
2021/10/26 11:36:05;;;;;;;12.67;3.80;;;16.60;33.00;;;;;;4998157;28;20838;-75
2021/10/26 11:38:38;;;;;;;10.13;3.40;;;16.60;32.60;;;;;;5013437;28;20426;-76
2021/10/26 11:41:13;;;;;;;10.70;3.63;;;16.60;32.90;;;;;;4998172;28;20423;-77
2021/10/26 11:43:51;;;;;;;17.90;2.97;;;16.80;32.60;;;;;;4992561;28;20511;-77
2021/10/26 11:46:30;;;;;;;7.30;3.53;;;17.00;31.60;;;;;;4992261;28;20444;-77
2021/10/26 11:49:09;;;;;;;16.27;4.40;;;17.00;31.90;;;;;;5001024;28;20434;-76
2021/10/26 11:51:43;;;;;;;9.20;2.70;;;17.00;31.60;;;;;;5011860;28;20462;-76
2021/10/26 11:54:28;;;;;;;8.80;3.63;;;17.00;30.50;;;;;;5011694;28;20483;-75
2021/10/26 11:56:56;;;;;;;7.20;2.67;;;16.90;31.80;;;;;;4993235;28;20415;-76
2021/10/26 11:59:21;;;;;;;8.30;3.20;;;16.90;31.60;;;;;;5003303;28;20434;-76
2021/10/26 12:01:59;;;;;;;9.20;3.00;;;16.80;32.10;;;;;;5012401;28;20415;-76
2021/10/26 12:04:36;;;;;;;9.60;3.00;;;16.80;31.80;;;;;;5015461;28;20203;-76
2021/10/26 12:07:11;;;;;;;7.07;3.07;;;16.90;31.90;;;;;;5018862;28;20442;-75
2021/10/26 12:09:47;;;;;;;12.97;3.40;;;17.00;31.50;;;;;;5016912;28;20480;-74
2021/10/26 12:12:22;;;;;;;14.77;3.67;;;17.10;31.80;;;;;;5013428;28;20462;-77
2021/10/26 12:14:50;;;;;;;9.70;2.90;;;17.20;31.00;;;;;;4999527;28;20497;-76
2021/10/26 12:17:26;;;;;;;4.80;3.00;;;17.10;30.90;;;;;;5009876;28;20419;-77
2021/10/26 12:20:07;;;;;;;5.37;3.10;;;17.20;30.80;;;;;;5018449;28;20447;-77
2021/10/26 12:22:39;;;;;;;5.57;2.70;;;17.20;30.20;;;;;;5015662;28;20435;-76
2021/10/26 12:25:22;;;;;;;6.97;3.20;;;17.00;30.20;;;;;;5018151;28;20825;-77
2021/10/26 12:27:48;;;;;;;8.57;4.00;;;16.70;31.40;;;;;;5021460;28;20438;-78
2021/10/26 12:30:15;;;;;;;6.33;3.20;;;16.60;32.20;;;;;;5017779;28;20855;-77
2021/10/26 12:32:52;;;;;;;8.20;3.00;;;16.50;32.50;;;;;;5020003;28;20539;-77
2021/10/26 12:35:18;;;;;;;12.70;3.07;;;16.50;33.00;;;;;;5020551;28;20458;-76
2021/10/26 12:37:43;;;;;;;9.67;3.17;;;16.50;32.20;;;;;;5015231;28;20739;-76
2021/10/26 12:40:20;;;;;;;11.20;3.27;;;16.50;32.50;;;;;;5015591;28;20418;-77
2021/10/26 12:42:47;;;;;;;6.60;2.90;;;16.60;32.00;;;;;;5015051;28;20314;-77
2021/10/26 12:45:15;;;;;;;15.70;3.43;;;16.70;31.80;;;;;;5015720;28;20445;-76
2021/10/26 12:47:54;;;;;;;12.00;4.10;;;16.80;31.90;;;;;;5014054;28;20418;-75